LFMLLGRP

Guest
Details From LFML - Marseille Provence
To LGRP - DIAGORAS
Flight Number -
Tags decoded
Created
Modified
Stats Distance 1,130 nm / 2,093 km
Max Altitude 0 ft / 0 m
Waypoints 2
Social Downloads 0
Likes 0
Share VATSIM

Download

Looking for another format? Having issues loading an existing format? Contact us
Advertisement - Login to hide

Notes

Requested: LFML LGRP

Route

LFML LGRP

ID Type Via Altitude Latitude Longitude Leg Dist Tot Dist Heading (true) Name
O LFML APT - 0 ft / 0 m 43.43589˚ 5.21328˚ - 0 nm - Marseille Provence
O LGRP APT - 0 ft / 0 m 36.40542˚ 28.08619˚ 1130 nm 1130 nm 104° / 119° DIAGORAS

Altitude Profile

Advertisement - Login to hide

Weather


0- 5 10 15 20 25 30 35+ Temperature / ° C

Clouds and Precipitation
Forecast for 2017-12-15 18:00 UTC. Updated an hour ago

Ground ~20,000 ft ~40,000 ft Winds

LFML

Details ICAO LFML (MRS)
Name Marseille Provence
Region France
Timezone Europe/Paris (UTC+1.0)
Stats Elevation 74 ft / 23 m (AMSL)
Location 43.435892° 5.213282°
Runways 2
Magnetic Variation 1.553° E

METAR

LFML 151430Z AUTO 31012KT CAVOK 11/01 Q1003 NOSIG

Decode

TAF

TAF LFML 151400Z 1515/1621 30010KT CAVOK BECMG 1610/1612 32020KT TEMPO 1612/1621 32020G33KT TX11/1515Z TN04/1604Z

Decode

Departure Runways

ID Width Length Bearing (true) Bearing (mag) Surface Threshold Offset Overrun Length
13L 148 ft / 45 m 11,478 ft / 3,499 m 133.99° 132.44° Asphalt 1,115 ft / 340 m 0 ft / 0 m
13R 148 ft / 45 m 7,981 ft / 2,433 m 134.90° 133.35° Asphalt 0 ft / 0 m 0 ft / 0 m
31L 148 ft / 45 m 7,981 ft / 2,433 m 314.91° 313.36° Asphalt 344 ft / 105 m 0 ft / 0 m
31R 148 ft / 45 m 11,478 ft / 3,499 m 314.01° 312.46° Asphalt 2,165 ft / 660 m 0 ft / 0 m

LGRP

Details ICAO LGRP (RHO)
Name DIAGORAS
Region Greece
Timezone Europe/Athens (UTC+2.0)
Stats Elevation 17 ft / 5 m (AMSL)
Location 36.405420° 28.086193°
Runways 1
Magnetic Variation 4.780° E

METAR

LGRP 151420Z 24004KT 9999 FEW018 SCT025 18/13 Q1018 NOSIG

Decode

TAF

TAF LGRP 151100Z 1512/1612 25010KT 9999 FEW020 BECMG 1518/1520 19015KT

Decode

Destination Runways

ID Width Length Bearing (true) Bearing (mag) Surface Threshold Offset Overrun Length
07 148 ft / 45 m 10,830 ft / 3,301 m 69.97° 65.19° Asphalt 0 ft / 0 m 0 ft / 0 m
25 148 ft / 45 m 10,830 ft / 3,301 m 249.99° 245.21° Asphalt 0 ft / 0 m 0 ft / 0 m

Approach Navaids

Runway Type Ident Frequency Range Bearing (true) Bearing (mag) Slope Elevation
25 Localiser IRDS 110.30 MHz 18 nm / 33 km 250.45° 245.67° - 17 ft / 5 m (AMSL)
25 Glidescope IRDS 110.30 MHz 10 nm / 19 km 249.98° 245.20° 3.00° 17 ft / 5 m (AMSL)

Popular Alternatives